Time;durP1;ratioP1;P1;durP2;ratioP2;P2;SDS_P1;SDS_P2;PMS_P1;PMS_P2;Temp;Humidity;BMP_temperature;BMP_pressure;BME280_temperature;BME280_humidity;BME280_pressure;Samples;Min_cycle;Max_cycle;Signal;HPM_P1;HPM_P2
2022/01/19 00:00:37;;;;;;;10.43;3.93;;;;;;;-0.88;100.00;96744.06;5071264;28;20264;-53
2022/01/19 00:03:03;;;;;;;9.43;4.20;;;;;;;-0.91;100.00;96734.75;5071024;28;20194;-52
2022/01/19 00:05:28;;;;;;;8.67;3.67;;;;;;;-0.94;100.00;96726.53;5071392;28;20202;-56
2022/01/19 00:07:54;;;;;;;7.90;3.77;;;;;;;-0.95;100.00;96719.56;5071508;28;20199;-65
2022/01/19 00:10:26;;;;;;;8.90;3.80;;;;;;;-0.98;100.00;96717.50;5071256;28;20194;-66
2022/01/19 00:12:54;;;;;;;9.43;3.67;;;;;;;-1.04;100.00;96711.44;5071921;28;20259;-66
2022/01/19 00:15:20;;;;;;;7.70;4.00;;;;;;;-1.06;100.00;96712.81;5071215;28;20223;-65
2022/01/19 00:17:45;;;;;;;6.87;3.57;;;;;;;-1.10;100.00;96723.31;5071188;28;20202;-65
2022/01/19 00:20:11;;;;;;;8.80;3.80;;;;;;;-1.08;100.00;96731.06;5071260;28;20220;-66
2022/01/19 00:22:37;;;;;;;8.40;3.73;;;;;;;-1.10;100.00;96725.19;5071487;28;20275;-51
2022/01/19 00:25:04;;;;;;;6.03;3.47;;;;;;;-1.12;100.00;96719.34;5070953;28;20200;-59
2022/01/19 00:27:30;;;;;;;8.97;4.17;;;;;;;-1.12;100.00;96720.16;5070942;28;20305;-59
2022/01/19 00:29:55;;;;;;;9.30;3.83;;;;;;;-1.14;100.00;96732.25;5070657;28;20278;-59
2022/01/19 00:32:23;;;;;;;8.03;3.93;;;;;;;-1.22;100.00;96724.88;5070722;28;20193;-59
2022/01/19 00:34:48;;;;;;;9.53;3.67;;;;;;;-1.25;100.00;96722.78;5071009;28;20206;-59
2022/01/19 00:37:13;;;;;;;11.30;4.00;;;;;;;-1.30;100.00;96718.34;5070957;28;20202;-59
2022/01/19 00:39:39;;;;;;;7.00;3.87;;;;;;;-1.32;100.00;96709.00;5070239;28;20320;-59
2022/01/19 00:42:04;;;;;;;8.53;3.87;;;;;;;-1.34;100.00;96717.31;5070448;28;20516;-59
2022/01/19 00:44:29;;;;;;;8.57;4.07;;;;;;;-1.36;100.00;96698.09;5070778;28;20205;-66
2022/01/19 00:46:54;;;;;;;7.40;3.60;;;;;;;-1.37;100.00;96693.03;5070747;28;20270;-65
2022/01/19 00:49:20;;;;;;;5.00;3.60;;;;;;;-1.41;100.00;96684.81;5070191;28;20273;-65
2022/01/19 00:51:45;;;;;;;10.73;4.47;;;;;;;-1.44;100.00;96684.59;5070415;28;20198;-65
2022/01/19 00:54:10;;;;;;;10.67;4.30;;;;;;;-1.46;100.00;96689.44;5070817;28;20203;-65
2022/01/19 00:56:36;;;;;;;9.80;4.30;;;;;;;-1.47;100.00;96680.63;5053674;28;20211;-64
2022/01/19 00:59:01;;;;;;;8.73;4.20;;;;;;;-1.48;100.00;96672.88;5070342;28;20209;-66
2022/01/19 01:01:27;;;;;;;7.53;3.60;;;;;;;-1.49;100.00;96673.97;5070315;28;20201;-52
2022/01/19 01:03:52;;;;;;;7.73;4.10;;;;;;;-1.54;100.00;96664.13;5069881;28;20236;-55
2022/01/19 01:06:19;;;;;;;7.20;3.73;;;;;;;-1.54;100.00;96660.66;5070433;28;20212;-54
2022/01/19 01:08:44;;;;;;;7.47;3.43;;;;;;;-1.57;100.00;96650.56;5070459;28;20206;-57
2022/01/19 01:11:10;;;;;;;9.27;3.90;;;;;;;-1.59;100.00;96645.50;5070046;28;20208;-56
2022/01/19 01:16:34;;;;;;;7.30;3.37;;;;;;;-1.63;100.00;96633.00;5054876;28;20269;-59
2022/01/19 01:19:04;;;;;;;10.53;3.33;;;;;;;-1.61;100.00;96636.94;5069784;28;20205;-53
2022/01/19 01:21:29;;;;;;;7.63;3.23;;;;;;;-1.61;100.00;96620.88;5070023;28;20198;-64
2022/01/19 01:23:55;;;;;;;10.03;3.93;;;;;;;-1.60;100.00;96605.63;5069973;28;20202;-65
2022/01/19 01:26:20;;;;;;;4.73;2.67;;;;;;;-1.58;100.00;96603.44;5070318;28;20194;-64
2022/01/19 01:28:46;;;;;;;8.10;2.97;;;;;;;-1.61;100.00;96594.13;5069697;28;20236;-65
2022/01/19 01:31:12;;;;;;;5.97;3.33;;;;;;;-1.62;100.00;96589.06;5069953;28;20198;-70
2022/01/19 01:33:39;;;;;;;6.37;3.30;;;;;;;-1.64;100.00;96593.94;5069959;28;20296;-67
2022/01/19 01:36:05;;;;;;;8.07;2.87;;;;;;;-1.64;100.00;96599.28;5070347;28;20177;-59
2022/01/19 01:38:31;;;;;;;8.23;3.20;;;;;;;-1.62;100.00;96607.78;5069912;28;20213;-57
2022/01/19 01:40:56;;;;;;;8.63;3.20;;;;;;;-1.64;100.00;96597.38;5069491;28;20254;-60
2022/01/19 01:43:22;;;;;;;7.10;3.23;;;;;;;-1.63;100.00;96600.88;5069945;28;20293;-60
2022/01/19 01:45:52;;;;;;;5.97;3.23;;;;;;;-1.68;100.00;96592.94;5070048;28;20234;-60
2022/01/19 01:48:20;;;;;;;6.63;3.00;;;;;;;-1.69;100.00;96596.69;5069268;28;20205;-60
2022/01/19 01:53:33;;;;;;;6.23;3.33;;;;;;;-1.71;100.00;96588.16;5054386;28;20201;-60
2022/01/19 01:56:07;;;;;;;10.50;3.57;;;;;;;-1.74;100.00;96578.06;5069378;28;20197;-62
2022/01/19 01:58:51;;;;;;;8.43;3.10;;;;;;;-1.78;100.00;96550.28;5069575;28;20224;-63
2022/01/19 02:01:17;;;;;;;10.33;3.70;;;;;;;-1.78;100.00;96544.94;5068305;28;20301;-60
2022/01/19 02:03:44;;;;;;;8.03;3.10;;;;;;;-1.80;100.00;96528.38;5069457;28;20201;-61
2022/01/19 02:08:55;;;;;;;8.70;3.50;;;;;;;-1.88;100.00;96516.50;5053942;28;20292;-64
2022/01/19 02:22:03;;;;;;;8.20;3.40;;;;;;;-1.95;100.00;96486.66;5053615;28;20212;-58
2022/01/19 02:24:49;;;;;;;8.10;3.30;;;;;;;-1.98;100.00;96486.44;5069138;28;20204;-59
2022/01/19 02:40:48;;;;;;;7.07;3.13;;;;;;;-2.08;100.00;96465.25;5053673;28;20213;-56
2022/01/19 02:43:21;;;;;;;7.83;3.17;;;;;;;-2.09;100.00;96460.97;5069434;28;20197;-58
2022/01/19 02:51:14;;;;;;;9.10;3.50;;;;;;;-2.14;100.00;96455.72;5053817;28;20213;-64
2022/01/19 02:53:40;;;;;;;8.53;3.70;;;;;;;-2.16;100.00;96453.34;5068300;28;20206;-59
2022/01/19 02:56:19;;;;;;;5.97;3.83;;;;;;;-2.18;100.00;96452.06;5068566;28;20233;-60
2022/01/19 02:58:50;;;;;;;6.70;3.37;;;;;;;-2.21;100.00;96450.78;5069073;28;20232;-59
2022/01/19 03:09:28;;;;;;;9.37;4.00;;;;;;;-2.21;100.00;96444.63;5053064;28;20264;-64
2022/01/19 03:11:54;;;;;;;8.57;3.27;;;;;;;-2.20;100.00;96451.56;5070090;28;20201;-63
2022/01/19 03:14:20;;;;;;;7.20;3.40;;;;;;;-2.24;100.00;96454.03;5072217;28;20201;-64
2022/01/19 03:16:46;;;;;;;6.40;3.50;;;;;;;-2.30;100.00;96446.41;5072148;28;20252;-63
2022/01/19 03:19:13;;;;;;;9.13;3.43;;;;;;;-2.32;100.00;96448.59;5071675;28;20218;-64
2022/01/19 03:21:40;;;;;;;7.43;3.50;;;;;;;-2.34;100.00;96440.06;5072191;28;20206;-63
2022/01/19 03:24:07;;;;;;;9.40;4.20;;;;;;;-2.35;100.00;96444.63;5072244;28;20228;-63
2022/01/19 03:26:33;;;;;;;8.13;3.70;;;;;;;-2.34;100.00;96450.78;5055835;28;20197;-60
2022/01/19 03:28:58;;;;;;;7.60;3.40;;;;;;;-2.38;100.00;96445.22;5054801;28;20253;-60
2022/01/19 03:31:23;;;;;;;8.00;3.43;;;;;;;-2.39;100.00;96442.81;5071742;28;20271;-60
2022/01/19 03:33:49;;;;;;;7.60;3.80;;;;;;;-2.40;100.00;96446.59;5071673;28;20197;-59
2022/01/19 03:36:15;;;;;;;8.20;3.57;;;;;;;-2.44;100.00;96446.38;5071557;28;20240;-59
2022/01/19 03:38:40;;;;;;;6.13;4.10;;;;;;;-2.43;100.00;96439.16;5071735;28;20222;-58
2022/01/19 03:41:05;;;;;;;9.17;3.90;;;;;;;-2.42;100.00;96438.06;5071700;28;20194;-59
2022/01/19 03:43:31;;;;;;;9.53;4.17;;;;;;;-2.42;100.00;96438.88;5071581;28;20209;-59
2022/01/19 03:45:59;;;;;;;7.03;3.70;;;;;;;-2.38;100.00;96436.38;5071503;28;20259;-62
2022/01/19 03:48:37;;;;;;;9.33;4.00;;;;;;;-2.40;100.00;96433.22;5072043;28;20241;-54
2022/01/19 03:51:03;;;;;;;5.67;3.03;;;;;;;-2.37;100.00;96425.41;5071791;28;20184;-54
2022/01/19 03:53:29;;;;;;;9.80;3.80;;;;;;;-2.31;100.00;96434.13;5071871;28;20236;-53
2022/01/19 03:55:55;;;;;;;9.10;4.47;;;;;;;-2.26;100.00;96428.69;5071012;28;20201;-54
2022/01/19 03:58:20;;;;;;;6.27;3.90;;;;;;;-2.22;100.00;96427.78;5071530;28;20240;-52
2022/01/19 04:00:46;;;;;;;8.07;4.33;;;;;;;-2.15;100.00;96427.41;5071229;28;20205;-51
2022/01/19 04:03:14;;;;;;;5.90;3.67;;;;;;;-2.11;100.00;96431.84;5071629;28;20201;-71
2022/01/19 04:05:56;;;;;;;8.10;4.20;;;;;;;-2.03;100.00;96433.03;5071106;28;20190;-71
2022/01/19 04:08:21;;;;;;;7.30;3.73;;;;;;;-1.96;100.00;96434.25;5071790;28;20198;-64
2022/01/19 04:10:47;;;;;;;8.37;3.77;;;;;;;-1.89;100.00;96431.94;5071067;28;20201;-64
2022/01/19 04:13:25;;;;;;;6.83;4.10;;;;;;;-1.83;100.00;96429.94;5071337;28;20189;-64
2022/01/19 04:15:51;;;;;;;7.93;4.10;;;;;;;-1.78;100.00;96440.56;5071585;28;20177;-63
2022/01/19 04:18:18;;;;;;;8.07;3.67;;;;;;;-1.74;100.00;96454.94;5071320;28;20256;-63
2022/01/19 04:20:47;;;;;;;6.43;3.73;;;;;;;-1.67;100.00;96449.97;5070918;28;20212;-63
2022/01/19 04:23:12;;;;;;;11.90;5.00;;;;;;;-1.58;100.00;96456.19;5071193;28;20206;-59
2022/01/19 04:25:38;;;;;;;8.40;5.17;;;;;;;-1.48;100.00;96458.66;5070511;28;20207;-65
2022/01/19 04:28:07;;;;;;;11.80;6.07;;;;;;;-1.38;100.00;96458.44;5070774;28;20240;-65
2022/01/19 04:30:34;;;;;;;15.50;7.50;;;;;;;-1.26;100.00;96445.31;5070568;28;20204;-65
2022/01/19 04:33:07;;;;;;;14.10;7.77;;;;;;;-1.17;100.00;96446.19;5070748;28;20193;-65
2022/01/19 04:35:44;;;;;;;15.17;8.20;;;;;;;-1.15;100.00;96441.31;5071122;28;20191;-64
2022/01/19 05:07:29;;;;;;;15.30;8.60;;;;;;;-0.89;100.00;96402.91;5054986;28;20204;-58
2022/01/19 05:15:08;;;;;;;17.23;9.80;;;;;;;-0.99;100.00;96418.41;5054644;28;20299;-60
2022/01/19 05:17:36;;;;;;;15.30;9.03;;;;;;;-0.95;100.00;96414.06;5070247;28;20190;-63
2022/01/19 05:20:10;;;;;;;18.03;8.63;;;;;;;-0.93;100.00;96406.50;5069437;28;20209;-64
2022/01/19 05:22:35;;;;;;;16.60;9.30;;;;;;;-0.90;100.00;96405.88;5069748;28;20259;-64
2022/01/19 05:25:01;;;;;;;18.17;9.53;;;;;;;-0.87;100.00;96402.59;5069890;28;20198;-64
2022/01/19 05:27:27;;;;;;;16.67;9.30;;;;;;;-0.83;100.00;96400.88;5070354;28;20206;-65
2022/01/19 05:29:52;;;;;;;17.53;8.57;;;;;;;-0.82;100.00;96399.78;5069690;28;20218;-64
2022/01/19 05:32:17;;;;;;;16.60;9.80;;;;;;;-0.80;100.00;96394.94;5069353;28;20202;-63
2022/01/19 05:34:43;;;;;;;16.97;9.70;;;;;;;-0.77;100.00;96388.94;5069290;28;20273;-59
2022/01/19 05:37:08;;;;;;;13.97;9.20;;;;;;;-0.75;100.00;96394.78;5069574;28;20198;-66
2022/01/19 05:39:34;;;;;;;18.20;9.07;;;;;;;-0.71;100.00;96393.06;5069686;28;20218;-63
2022/01/19 05:41:59;;;;;;;15.00;8.27;;;;;;;-0.68;100.00;96381.75;5069986;28;20213;-63
2022/01/19 05:44:24;;;;;;;15.10;8.70;;;;;;;-0.61;100.00;96382.09;5069442;28;20206;-64
2022/01/19 05:46:50;;;;;;;16.23;8.60;;;;;;;-0.57;100.00;96391.09;5069532;28;20189;-63
2022/01/19 05:49:15;;;;;;;15.77;8.67;;;;;;;-0.51;100.00;96390.66;5069461;28;20203;-66
2022/01/19 05:51:41;;;;;;;17.33;9.20;;;;;;;-0.46;100.00;96390.53;5069396;28;20642;-62
2022/01/19 05:54:06;;;;;;;14.30;8.17;;;;;;;-0.42;100.00;96385.34;5069570;28;20229;-66
2022/01/19 05:56:32;;;;;;;14.50;9.43;;;;;;;-0.42;100.00;96379.97;5069657;28;20194;-63
2022/01/19 05:58:58;;;;;;;17.43;9.17;;;;;;;-0.40;100.00;96373.19;5069563;28;20219;-62
2022/01/19 06:01:23;;;;;;;15.23;8.07;;;;;;;-0.37;100.00;96369.09;5069328;28;20259;-66
2022/01/19 06:03:51;;;;;;;18.13;9.30;;;;;;;-0.35;100.00;96364.22;5069444;28;20183;-66
2022/01/19 06:06:17;;;;;;;15.37;8.43;;;;;;;-0.30;100.00;96364.06;5069747;28;20658;-65
2022/01/19 06:08:44;;;;;;;15.43;8.70;;;;;;;-0.30;100.00;96372.13;5069737;28;20195;-65
2022/01/19 06:11:10;;;;;;;16.07;9.00;;;;;;;-0.31;100.00;96370.56;5069470;28;20203;-62
2022/01/19 06:13:36;;;;;;;19.47;9.63;;;;;;;-0.35;100.00;96370.41;5069001;28;20207;-58
2022/01/19 06:16:02;;;;;;;16.30;9.20;;;;;;;-0.37;100.00;96366.41;5069362;28;20286;-52
2022/01/19 06:18:27;;;;;;;17.93;9.63;;;;;;;-0.35;100.00;96358.88;5069490;28;20283;-54
2022/01/19 06:20:53;;;;;;;17.20;8.93;;;;;;;-0.32;100.00;96367.06;5069046;28;20283;-56
2022/01/19 06:23:18;;;;;;;15.77;9.27;;;;;;;-0.32;100.00;96364.38;5068988;28;20187;-56
2022/01/19 06:25:43;;;;;;;16.40;9.23;;;;;;;-0.34;100.00;96355.88;5069112;28;20195;-48
2022/01/19 06:28:10;;;;;;;14.10;8.83;;;;;;;-0.34;100.00;96349.72;5069319;28;20281;-53
2022/01/19 06:30:36;;;;;;;16.43;9.17;;;;;;;-0.35;100.00;96348.13;5069110;28;20213;-59
2022/01/19 06:33:01;;;;;;;15.33;9.10;;;;;;;-0.33;100.00;96340.56;5068740;28;20196;-59
2022/01/19 06:35:27;;;;;;;17.13;9.47;;;;;;;-0.29;100.00;96350.34;5068509;28;20211;-59
2022/01/19 06:37:52;;;;;;;16.13;9.80;;;;;;;-0.25;100.00;96340.59;5068977;28;20190;-60
2022/01/19 06:40:19;;;;;;;15.70;9.50;;;;;;;-0.21;100.00;96348.81;5069008;28;20241;-69
2022/01/19 06:42:44;;;;;;;14.67;8.73;;;;;;;-0.20;100.00;96339.66;5069031;28;20195;-60
2022/01/19 06:45:11;;;;;;;19.27;10.57;;;;;;;-0.20;100.00;96345.03;5052541;28;20253;-59
2022/01/19 06:47:37;;;;;;;18.50;9.80;;;;;;;-0.16;100.00;96343.28;5070938;28;20199;-59
2022/01/19 06:50:05;;;;;;;15.53;9.70;;;;;;;-0.13;100.00;96340.00;5072408;28;20210;-58
2022/01/19 06:52:31;;;;;;;19.70;10.50;;;;;;;-0.11;100.00;96341.25;5072409;28;20204;-64
2022/01/19 06:54:57;;;;;;;18.40;11.00;;;;;;;-0.08;100.00;96339.84;5072153;28;20198;-63
2022/01/19 06:57:22;;;;;;;18.97;10.03;;;;;;;-0.06;100.00;96334.97;5072016;28;20203;-64
2022/01/19 06:59:51;;;;;;;17.03;10.57;;;;;;;-0.05;100.00;96333.84;5071769;28;20244;-64
2022/01/19 07:02:19;;;;;;;19.83;11.90;;;;;;;-0.01;100.00;96337.50;5072132;28;20207;-63
2022/01/19 07:04:49;;;;;;;22.30;12.73;;;;;;;-0.03;100.00;96339.72;5071518;28;20214;-63
2022/01/19 07:07:17;;;;;;;17.53;10.50;;;;;;;0.01;100.00;96332.63;5072131;28;20200;-57
2022/01/19 07:09:44;;;;;;;19.33;11.13;;;;;;;0.07;100.00;96328.66;5072025;28;20215;-70
2022/01/19 07:12:10;;;;;;;19.40;11.10;;;;;;;0.04;100.00;96330.09;5071899;28;20250;-60
2022/01/19 07:14:35;;;;;;;19.00;11.23;;;;;;;0.09;100.00;96318.41;5071459;28;20214;-59
2022/01/19 07:17:01;;;;;;;17.77;10.00;;;;;;;0.08;100.00;96308.78;5071686;28;20199;-59
2022/01/19 07:19:26;;;;;;;20.50;11.80;;;;;;;0.10;100.00;96311.94;5071465;28;20225;-59
2022/01/19 07:21:51;;;;;;;20.33;11.57;;;;;;;0.13;100.00;96313.19;5071980;28;20198;-59
2022/01/19 07:24:17;;;;;;;20.70;11.23;;;;;;;0.20;100.00;96322.38;5071759;28;20207;-59
2022/01/19 07:26:42;;;;;;;23.20;12.10;;;;;;;0.30;100.00;96308.66;5071727;28;20248;-75
2022/01/19 07:29:08;;;;;;;21.20;12.10;;;;;;;0.37;100.00;96311.66;5071879;28;20207;-62
2022/01/19 07:31:34;;;;;;;18.87;11.63;;;;;;;0.38;100.00;96313.22;5071753;28;20217;-61
2022/01/19 07:33:59;;;;;;;24.17;14.80;;;;;;;0.41;100.00;96312.59;5072118;28;20194;-60
2022/01/19 07:36:24;;;;;;;18.33;11.97;;;;;;;0.45;100.00;96313.56;5071722;28;20207;-61
2022/01/19 07:38:50;;;;;;;21.73;12.63;;;;;;;0.47;100.00;96308.63;5071389;28;20207;-60
2022/01/19 07:41:15;;;;;;;19.13;11.40;;;;;;;0.47;100.00;96305.94;5071280;28;20296;-60
2022/01/19 07:43:41;;;;;;;20.17;12.10;;;;;;;0.52;100.00;96311.19;5070807;28;20192;-58
2022/01/19 07:46:06;;;;;;;22.73;12.63;;;;;;;0.58;100.00;96307.22;5071106;28;20199;-79
2022/01/19 07:48:31;;;;;;;20.00;11.77;;;;;;;0.55;100.00;96296.31;5071486;28;20210;-46
2022/01/19 07:50:57;;;;;;;22.37;12.13;;;;;;;0.62;100.00;96300.09;5071332;28;20209;-50
2022/01/19 07:53:22;;;;;;;22.47;12.23;;;;;;;0.72;100.00;96293.63;5071409;28;20222;-49
2022/01/19 07:55:49;;;;;;;19.73;11.63;;;;;;;0.75;100.00;96307.22;5071137;28;20206;-50
2022/01/19 07:58:15;;;;;;;23.40;12.87;;;;;;;0.79;100.00;96302.78;5055087;28;20188;-51
2022/01/19 08:00:42;;;;;;;20.40;12.47;;;;;;;0.77;100.00;96305.00;5071075;28;20210;-48
2022/01/19 08:03:08;;;;;;;26.70;14.93;;;;;;;0.88;100.00;96311.63;5071977;28;20241;-59
2022/01/19 08:05:33;;;;;;;19.87;11.97;;;;;;;1.02;100.00;96306.06;5070941;28;20208;-59
2022/01/19 08:07:58;;;;;;;18.97;11.53;;;;;;;1.10;100.00;96303.34;5070639;28;20201;-59
2022/01/19 08:10:24;;;;;;;18.00;12.57;;;;;;;1.17;100.00;96300.16;5071349;28;20211;-60
2022/01/19 08:12:52;;;;;;;19.40;11.80;;;;;;;1.13;100.00;96294.63;5070941;28;20194;-59
2022/01/19 08:15:17;;;;;;;18.33;10.90;;;;;;;1.10;100.00;96297.97;5070906;28;20205;-60
2022/01/19 08:17:44;;;;;;;17.20;11.23;;;;;;;1.11;100.00;96293.38;5071267;28;20296;-62
2022/01/19 08:20:10;;;;;;;19.23;11.73;;;;;;;1.05;100.00;96298.13;5070735;28;20256;-61
2022/01/19 08:22:36;;;;;;;17.77;11.43;;;;;;;1.09;100.00;96298.31;5070810;28;20201;-50
2022/01/19 08:25:01;;;;;;;20.47;12.07;;;;;;;1.15;100.00;96300.50;5055308;28;20198;-61
2022/01/19 08:27:27;;;;;;;18.90;11.70;;;;;;;1.16;100.00;96302.06;5070704;28;20185;-61
2022/01/19 08:29:52;;;;;;;18.57;11.77;;;;;;;1.24;100.00;96298.53;5070797;28;20213;-61
2022/01/19 08:32:18;;;;;;;18.63;11.77;;;;;;;1.31;100.00;96293.47;5071103;28;20207;-61
2022/01/19 08:34:43;;;;;;;21.27;11.93;;;;;;;1.28;100.00;96294.13;5071018;28;20188;-60
2022/01/19 08:37:14;;;;;;;19.17;11.90;;;;;;;1.29;100.00;96293.00;5070983;28;20198;-61
2022/01/19 08:39:40;;;;;;;21.27;11.97;;;;;;;1.38;100.00;96293.00;5070759;28;20217;-58
2022/01/19 08:42:10;;;;;;;24.23;12.77;;;;;;;1.40;100.00;96286.16;5070207;28;20617;-48
2022/01/19 08:44:35;;;;;;;19.93;11.67;;;;;;;1.35;100.00;96283.63;5070288;28;20199;-50
2022/01/19 08:47:01;;;;;;;16.53;11.27;;;;;;;1.38;100.00;96285.69;5070377;28;20201;-54
2022/01/19 08:49:26;;;;;;;26.03;15.30;;;;;;;1.41;100.00;96287.75;5070240;28;20196;-50
2022/01/19 08:51:51;;;;;;;20.87;12.77;;;;;;;1.47;100.00;96275.69;5071223;28;20200;-52
2022/01/19 08:54:17;;;;;;;19.87;11.53;;;;;;;1.56;100.00;96278.34;5070298;28;20224;-51
2022/01/19 08:56:42;;;;;;;18.93;11.73;;;;;;;1.60;100.00;96280.06;5070778;28;20197;-60
2022/01/19 08:59:08;;;;;;;17.33;11.30;;;;;;;1.55;100.00;96277.56;5070200;28;20212;-56
2022/01/19 09:01:33;;;;;;;19.23;12.50;;;;;;;1.54;100.00;96278.69;5070461;28;20228;-52
2022/01/19 09:03:58;;;;;;;17.53;11.33;;;;;;;1.68;100.00;96278.44;5070548;28;20205;-54
2022/01/19 09:06:25;;;;;;;16.93;11.00;;;;;;;1.82;100.00;96271.69;5069958;28;20252;-52
2022/01/19 09:08:50;;;;;;;19.20;11.37;;;;;;;1.96;100.00;96283.03;5070504;28;20227;-55
2022/01/19 09:11:16;;;;;;;18.23;11.37;;;;;;;2.02;100.00;96278.25;5070334;28;20209;-54
2022/01/19 09:13:41;;;;;;;17.67;11.17;;;;;;;2.13;100.00;96282.91;5054066;28;20193;-54
2022/01/19 09:16:06;;;;;;;20.03;11.83;;;;;;;2.20;100.00;96280.50;5070018;28;20202;-59
2022/01/19 09:18:32;;;;;;;15.23;10.53;;;;;;;2.21;100.00;96278.56;5053950;28;20194;-60
2022/01/19 09:20:57;;;;;;;17.53;11.67;;;;;;;2.27;100.00;96280.78;5069940;28;20255;-59
2022/01/19 09:23:23;;;;;;;15.97;10.30;;;;;;;2.36;100.00;96281.47;5069814;28;20560;-59
2022/01/19 09:25:49;;;;;;;16.70;11.30;;;;;;;2.52;100.00;96268.97;5069562;28;20202;-59
2022/01/19 09:28:14;;;;;;;14.77;10.97;;;;;;;2.53;100.00;96270.56;5069899;28;20336;-60
2022/01/19 09:30:41;;;;;;;16.93;10.77;;;;;;;2.74;100.00;96271.31;5070004;28;20210;-60
2022/01/19 09:33:17;;;;;;;16.50;10.53;;;;;;;2.79;100.00;96268.44;5069608;28;20229;-59
2022/01/19 09:36:05;;;;;;;16.77;10.63;;;;;;;3.03;100.00;96263.09;5070239;28;20201;-59
2022/01/19 09:38:36;;;;;;;16.27;10.87;;;;;;;3.53;100.00;96259.38;5069679;28;20197;-59
2022/01/19 09:41:03;;;;;;;16.30;10.53;;;;;;;3.65;100.00;96256.66;5069829;28;20193;-59
2022/01/19 09:43:29;;;;;;;15.00;10.07;;;;;;;3.47;100.00;96256.09;5069609;28;20614;-60
2022/01/19 09:45:56;;;;;;;15.57;10.50;;;;;;;3.36;100.00;96255.72;5069954;28;20193;-59
2022/01/19 09:48:23;;;;;;;14.20;10.33;;;;;;;3.15;100.00;96244.25;5069592;28;20197;-60
2022/01/19 09:50:48;;;;;;;15.17;10.87;;;;;;;3.93;100.00;96247.53;5052928;28;20277;-60
2022/01/19 09:53:14;;;;;;;14.20;10.30;;;;;;;4.66;100.00;96237.34;5069544;28;20222;-56
2022/01/19 09:55:42;;;;;;;14.37;10.20;;;;;;;5.00;100.00;96242.91;5069183;28;20179;-59
2022/01/19 09:58:08;;;;;;;17.77;11.43;;;;;;;5.73;100.00;96232.38;5053862;28;20190;-58
2022/01/19 10:00:35;;;;;;;13.67;10.43;;;;;;;6.56;100.00;96235.44;5069257;28;20257;-58
2022/01/19 10:03:23;;;;;;;20.87;11.30;;;;;;;7.23;100.00;96221.22;5069204;28;20200;-57
2022/01/19 10:05:57;;;;;;;18.87;14.03;;;;;;;7.81;100.00;96222.59;5053756;28;20271;-58
2022/01/19 10:08:46;;;;;;;23.67;16.47;;;;;;;8.11;100.00;96215.28;5052403;28;20197;-59
2022/01/19 10:17:06;;;;;;;14.37;10.27;;;;;;;8.50;100.00;96208.47;5053802;28;20258;-59
2022/01/19 10:19:37;;;;;;;15.57;11.17;;;;;;;8.42;100.00;96203.31;5069511;28;20268;-58
2022/01/19 10:22:08;;;;;;;13.13;10.77;;;;;;;8.11;100.00;96193.53;5053870;28;20205;-57
2022/01/19 10:24:55;;;;;;;14.47;10.57;;;;;;;8.33;100.00;96194.63;5056221;28;20194;-58
2022/01/19 10:27:38;;;;;;;15.43;10.40;;;;;;;8.79;100.00;96191.34;5073226;28;20299;-58
2022/01/19 10:30:04;;;;;;;17.90;10.83;;;;;;;8.53;100.00;96175.06;5073155;28;20304;-67
2022/01/19 10:32:41;;;;;;;14.27;10.50;;;;;;;8.38;100.00;96170.59;5055516;28;20238;-71
2022/01/19 10:35:23;;;;;;;15.67;10.87;;;;;;;8.38;100.00;96165.16;5055663;28;20197;-70
2022/01/19 10:38:06;;;;;;;13.77;11.27;;;;;;;8.41;100.00;96163.66;5055622;28;20378;-70
2022/01/19 10:40:33;;;;;;;15.20;10.87;;;;;;;8.40;100.00;96160.13;5055240;28;20197;-69
2022/01/19 10:42:58;;;;;;;15.03;11.27;;;;;;;8.38;100.00;96153.50;5072272;28;20189;-69
2022/01/19 10:45:24;;;;;;;15.03;11.30;;;;;;;8.43;100.00;96153.16;5071785;28;20292;-69
2022/01/19 10:47:56;;;;;;;16.03;11.00;;;;;;;7.96;100.00;96145.53;5072277;28;20194;-51
2022/01/19 10:50:31;;;;;;;14.83;10.60;;;;;;;7.55;100.00;96142.97;5072309;28;20202;-54
2022/01/19 10:52:58;;;;;;;15.63;11.00;;;;;;;7.41;100.00;96131.88;5072220;28;20290;-56
2022/01/19 10:55:40;;;;;;;16.10;11.63;;;;;;;6.73;100.00;96135.38;5072037;28;20195;-56
2022/01/19 10:58:12;;;;;;;14.17;11.17;;;;;;;6.57;100.00;96131.19;5072407;28;20213;-55
2022/01/19 11:00:38;;;;;;;14.00;10.50;;;;;;;6.22;100.00;96130.47;5072529;28;20210;-55
2022/01/19 11:03:14;;;;;;;18.77;11.07;;;;;;;5.82;100.00;96132.72;5056500;28;20250;-55
2022/01/19 11:05:49;;;;;;;16.53;11.17;;;;;;;5.52;100.00;96128.94;5055754;28;20228;-68
2022/01/19 11:08:17;;;;;;;16.17;11.13;;;;;;;5.29;100.00;96119.91;5072094;28;20334;-56
2022/01/19 11:10:48;;;;;;;17.33;11.17;;;;;;;5.16;100.00;96115.69;5072356;28;20194;-58
2022/01/19 11:13:15;;;;;;;20.73;12.23;;;;;;;5.06;100.00;96119.72;5072326;28;20638;-58
2022/01/19 11:15:43;;;;;;;16.83;10.93;;;;;;;4.98;100.00;96114.47;5071902;28;20281;-58
2022/01/19 11:18:08;;;;;;;17.13;11.03;;;;;;;4.90;100.00;96107.34;5071771;28;20246;-58
2022/01/19 11:20:42;;;;;;;24.90;13.80;;;;;;;4.89;100.00;96111.19;5071348;28;20212;-58
2022/01/19 11:23:33;;;;;;;24.73;12.37;;;;;;;4.88;100.00;96093.38;5071988;28;20204;-58
2022/01/19 11:26:01;;;;;;;24.90;16.30;;;;;;;4.85;100.00;96099.50;5054724;28;20206;-57
2022/01/19 11:28:34;;;;;;;17.93;12.00;;;;;;;4.85;100.00;96091.38;5072126;28;20203;-52
2022/01/19 11:31:16;;;;;;;15.63;10.47;;;;;;;4.83;100.00;96080.09;5072006;28;20214;-49
2022/01/19 11:33:44;;;;;;;14.77;9.83;;;;;;;4.76;100.00;96079.91;5070253;28;20199;-48
2022/01/19 11:36:24;;;;;;;16.03;9.27;;;;;;;4.75;100.00;96072.94;5071394;28;20228;-49
2022/01/19 11:39:10;;;;;;;15.97;9.90;;;;;;;4.77;100.00;96076.88;5071811;28;20246;-53
2022/01/19 11:41:37;;;;;;;15.47;9.60;;;;;;;4.83;100.00;96066.56;5055362;28;20352;-45
2022/01/19 11:44:04;;;;;;;17.43;9.67;;;;;;;4.90;100.00;96062.13;5055473;28;20216;-66
2022/01/19 11:46:39;;;;;;;14.20;9.00;;;;;;;4.95;100.00;96063.78;5071500;28;20209;-58
2022/01/19 11:49:06;;;;;;;17.83;9.70;;;;;;;5.00;100.00;96063.53;5071364;28;20279;-58
2022/01/19 11:51:38;;;;;;;14.83;9.10;;;;;;;5.04;100.00;96058.97;5071088;28;20209;-57
2022/01/19 11:54:12;;;;;;;17.77;9.73;;;;;;;5.09;100.00;96066.81;5071143;28;20191;-57
2022/01/19 11:57:14;;;;;;;14.30;9.03;;;;;;;5.13;100.00;96048.75;5054794;28;20224;-58
2022/01/19 11:59:45;;;;;;;17.63;9.57;;;;;;;5.22;100.00;96054.75;5071399;28;20221;-58
2022/01/19 12:02:28;;;;;;;18.67;9.20;;;;;;;5.27;100.00;96047.16;5054223;28;20212;-57
2022/01/19 12:05:12;;;;;;;16.30;9.77;;;;;;;5.38;100.00;96041.97;5053785;28;20541;-66
2022/01/19 12:07:39;;;;;;;15.93;9.17;;;;;;;5.45;100.00;96031.28;5071099;28;20195;-62
2022/01/19 12:10:14;;;;;;;14.23;8.20;;;;;;;5.48;100.00;96022.44;5055356;28;20218;-62
2022/01/19 12:12:53;;;;;;;15.07;8.10;;;;;;;5.56;100.00;96022.25;5071395;28;20197;-61
2022/01/19 12:15:52;;;;;;;14.00;8.13;;;;;;;5.68;100.00;96015.91;5071142;28;20182;-62
2022/01/19 12:18:54;;;;;;;15.70;7.40;;;;;;;5.74;100.00;96009.06;5048894;28;20222;-62
2022/01/19 12:21:31;;;;;;;16.87;8.13;;;;;;;5.80;100.00;95992.16;4978190;28;20208;-59
2022/01/19 12:24:19;;;;;;;14.20;7.23;;;;;;;5.93;100.00;95984.69;5046536;28;20225;-55
2022/01/19 12:27:16;;;;;;;16.80;8.10;;;;;;;5.95;100.00;95982.41;5054230;28;20261;-57
2022/01/19 12:29:43;;;;;;;13.70;8.03;;;;;;;5.92;100.00;95980.41;5043472;28;20280;-58
2022/01/19 12:32:29;;;;;;;14.57;7.57;;;;;;;5.96;100.00;95981.25;5054100;28;20290;-57
2022/01/19 12:35:17;;;;;;;13.17;8.33;;;;;;;5.99;100.00;95980.56;5053406;28;20303;-59
2022/01/19 12:37:53;;;;;;;15.43;8.43;;;;;;;6.07;100.00;95968.69;5046247;28;20227;-63
2022/01/19 12:40:18;;;;;;;14.93;7.87;;;;;;;6.01;100.00;95957.34;5070798;28;20209;-56
2022/01/19 12:42:49;;;;;;;15.50;8.60;;;;;;;5.94;100.00;95956.47;5053791;28;20197;-59
2022/01/19 12:45:22;;;;;;;13.67;8.10;;;;;;;5.93;100.00;95961.09;5070159;28;20218;-61
2022/01/19 12:47:48;;;;;;;15.00;8.60;;;;;;;5.94;100.00;95956.47;5070431;28;20678;-59
2022/01/19 12:50:17;;;;;;;15.07;8.73;;;;;;;6.00;100.00;95955.81;5070551;28;20204;-59
2022/01/19 12:52:52;;;;;;;17.30;8.90;;;;;;;6.00;100.00;95955.00;5054698;28;20190;-59